sensor_id;sensor_type;location;lat;lon;timestamp;pressure;altitude;pressure_sealevel;temperature;humidity
61014;BME280;46899;47.542;19.082;2023-04-01T00:01:33;99062.19;;;9.02;100.00
61014;BME280;46899;47.542;19.082;2023-04-01T00:04:36;99052.84;;;9.00;100.00
61014;BME280;46899;47.542;19.082;2023-04-01T00:07:38;99059.06;;;8.95;100.00
61014;BME280;46899;47.542;19.082;2023-04-01T00:10:41;99056.56;;;8.94;100.00
61014;BME280;46899;47.542;19.082;2023-04-01T00:13:44;99056.03;;;9.05;100.00
61014;BME280;46899;47.542;19.082;2023-04-01T00:16:47;99059.47;;;9.22;100.00
61014;BME280;46899;47.542;19.082;2023-04-01T00:19:49;99071.87;;;9.33;100.00
61014;BME280;46899;47.542;19.082;2023-04-01T00:22:52;99069.38;;;9.48;100.00
61014;BME280;46899;47.542;19.082;2023-04-01T00:25:54;99065.09;;;9.47;100.00
61014;BME280;46899;47.542;19.082;2023-04-01T00:28:58;99062.06;;;9.39;100.00
61014;BME280;46899;47.542;19.082;2023-04-01T00:32:00;99064.81;;;9.36;100.00
61014;BME280;46899;47.542;19.082;2023-04-01T00:35:03;99063.28;;;9.32;100.00
61014;BME280;46899;47.542;19.082;2023-04-01T00:38:06;99063.34;;;9.31;100.00
61014;BME280;46899;47.542;19.082;2023-04-01T00:41:09;99064.53;;;9.25;100.00
61014;BME280;46899;47.542;19.082;2023-04-01T00:47:22;99049.69;;;9.10;100.00
61014;BME280;46899;47.542;19.082;2023-04-01T00:50:26;99057.97;;;9.18;100.00
61014;BME280;46899;47.542;19.082;2023-04-01T00:53:29;99053.81;;;9.31;100.00
61014;BME280;46899;47.542;19.082;2023-04-01T00:56:35;99043.56;;;9.28;100.00
61014;BME280;46899;47.542;19.082;2023-04-01T00:59:40;99051.59;;;9.24;100.00
61014;BME280;46899;47.542;19.082;2023-04-01T01:02:45;99045.66;;;9.22;100.00
61014;BME280;46899;47.542;19.082;2023-04-01T01:06:11;99042.22;;;9.21;100.00
61014;BME280;46899;47.542;19.082;2023-04-01T01:12:21;99044.19;;;9.16;100.00
61014;BME280;46899;47.542;19.082;2023-04-01T01:15:28;99040.69;;;9.17;100.00
61014;BME280;46899;47.542;19.082;2023-04-01T01:24:50;99040.75;;;9.33;100.00
61014;BME280;46899;47.542;19.082;2023-04-01T01:28:30;99038.16;;;9.33;100.00
61014;BME280;46899;47.542;19.082;2023-04-01T01:31:30;99041.75;;;9.30;100.00
61014;BME280;46899;47.542;19.082;2023-04-01T01:38:04;99031.59;;;9.43;100.00
61014;BME280;46899;47.542;19.082;2023-04-01T01:41:08;99028.69;;;9.49;100.00
61014;BME280;46899;47.542;19.082;2023-04-01T01:44:12;99034.41;;;9.38;100.00
61014;BME280;46899;47.542;19.082;2023-04-01T01:47:17;99036.91;;;9.40;100.00
61014;BME280;46899;47.542;19.082;2023-04-01T01:50:22;99039.50;;;9.40;100.00
61014;BME280;46899;47.542;19.082;2023-04-01T01:53:26;99043.66;;;9.44;100.00
61014;BME280;46899;47.542;19.082;2023-04-01T01:56:29;99036.16;;;9.38;100.00
61014;BME280;46899;47.542;19.082;2023-04-01T01:59:33;99036.91;;;9.40;100.00
61014;BME280;46899;47.542;19.082;2023-04-01T02:02:45;99033.09;;;9.47;100.00
61014;BME280;46899;47.542;19.082;2023-04-01T02:05:49;99038.34;;;9.62;100.00
61014;BME280;46899;47.542;19.082;2023-04-01T02:08:59;99031.47;;;9.61;100.00
61014;BME280;46899;47.542;19.082;2023-04-01T02:12:05;99027.44;;;9.56;100.00
61014;BME280;46899;47.542;19.082;2023-04-01T02:15:10;99026.91;;;9.49;100.00
61014;BME280;46899;47.542;19.082;2023-04-01T02:18:14;99028.13;;;9.59;100.00
61014;BME280;46899;47.542;19.082;2023-04-01T02:21:18;99025.22;;;9.66;100.00
61014;BME280;46899;47.542;19.082;2023-04-01T02:24:23;99025.22;;;9.66;100.00
61014;BME280;46899;47.542;19.082;2023-04-01T02:27:27;99017.09;;;9.72;100.00
61014;BME280;46899;47.542;19.082;2023-04-01T02:30:31;99022.62;;;9.81;100.00
61014;BME280;46899;47.542;19.082;2023-04-01T02:33:34;99009.56;;;9.83;100.00
61014;BME280;46899;47.542;19.082;2023-04-01T02:36:36;99011.25;;;9.84;100.00
61014;BME280;46899;47.542;19.082;2023-04-01T02:39:40;99004.28;;;9.84;100.00
61014;BME280;46899;47.542;19.082;2023-04-01T02:42:44;99010.66;;;9.79;100.00
61014;BME280;46899;47.542;19.082;2023-04-01T02:45:47;99006.19;;;9.81;100.00
61014;BME280;46899;47.542;19.082;2023-04-01T02:48:49;99003.50;;;9.82;100.00
61014;BME280;46899;47.542;19.082;2023-04-01T02:51:52;98997.81;;;9.76;100.00
61014;BME280;46899;47.542;19.082;2023-04-01T02:54:55;99004.00;;;9.73;100.00
61014;BME280;46899;47.542;19.082;2023-04-01T02:57:58;99013.75;;;9.70;100.00
61014;BME280;46899;47.542;19.082;2023-04-01T03:01:01;99008.44;;;9.55;100.00
61014;BME280;46899;47.542;19.082;2023-04-01T03:04:04;99015.34;;;9.39;100.00
61014;BME280;46899;47.542;19.082;2023-04-01T03:07:06;99012.28;;;9.31;100.00
61014;BME280;46899;47.542;19.082;2023-04-01T03:10:09;99013.59;;;9.23;100.00
61014;BME280;46899;47.542;19.082;2023-04-01T03:13:11;99021.53;;;9.20;100.00
61014;BME280;46899;47.542;19.082;2023-04-01T03:16:14;99013.22;;;9.13;100.00
61014;BME280;46899;47.542;19.082;2023-04-01T03:19:17;99011.00;;;9.06;100.00
61014;BME280;46899;47.542;19.082;2023-04-01T03:22:19;99006.44;;;8.93;100.00
61014;BME280;46899;47.542;19.082;2023-04-01T03:25:23;99002.69;;;8.82;100.00
61014;BME280;46899;47.542;19.082;2023-04-01T03:28:25;99005.00;;;8.71;100.00
61014;BME280;46899;47.542;19.082;2023-04-01T03:31:28;99010.63;;;8.62;100.00
61014;BME280;46899;47.542;19.082;2023-04-01T03:34:31;99018.72;;;8.73;100.00
61014;BME280;46899;47.542;19.082;2023-04-01T03:37:33;99024.25;;;8.65;100.00
61014;BME280;46899;47.542;19.082;2023-04-01T03:40:36;99031.63;;;8.56;100.00
61014;BME280;46899;47.542;19.082;2023-04-01T03:43:40;99026.84;;;8.65;100.00
61014;BME280;46899;47.542;19.082;2023-04-01T03:46:43;99031.19;;;8.65;100.00
61014;BME280;46899;47.542;19.082;2023-04-01T03:49:46;99034.84;;;8.61;100.00
61014;BME280;46899;47.542;19.082;2023-04-01T03:52:49;99038.22;;;8.63;100.00
61014;BME280;46899;47.542;19.082;2023-04-01T03:55:52;99041.16;;;8.55;100.00
61014;BME280;46899;47.542;19.082;2023-04-01T03:58:55;99044.97;;;8.48;100.00
61014;BME280;46899;47.542;19.082;2023-04-01T04:01:57;99052.81;;;8.47;100.00
61014;BME280;46899;47.542;19.082;2023-04-01T04:05:00;99049.34;;;8.48;100.00
61014;BME280;46899;47.542;19.082;2023-04-01T04:08:03;99048.84;;;8.40;100.00
61014;BME280;46899;47.542;19.082;2023-04-01T04:11:06;99049.97;;;8.34;100.00
61014;BME280;46899;47.542;19.082;2023-04-01T04:14:08;99048.81;;;8.21;100.00
61014;BME280;46899;47.542;19.082;2023-04-01T04:17:11;99051.69;;;8.15;100.00
61014;BME280;46899;47.542;19.082;2023-04-01T04:20:18;99045.81;;;8.11;100.00
61014;BME280;46899;47.542;19.082;2023-04-01T04:23:22;99048.63;;;8.07;100.00
61014;BME280;46899;47.542;19.082;2023-04-01T04:26:24;99050.50;;;8.03;100.00
61014;BME280;46899;47.542;19.082;2023-04-01T04:29:28;99047.22;;;8.00;100.00
61014;BME280;46899;47.542;19.082;2023-04-01T04:32:32;99056.72;;;7.99;100.00
61014;BME280;46899;47.542;19.082;2023-04-01T04:35:35;99049.16;;;7.95;100.00
61014;BME280;46899;47.542;19.082;2023-04-01T04:38:37;99038.69;;;7.98;100.00
61014;BME280;46899;47.542;19.082;2023-04-01T04:41:40;99046.94;;;8.06;100.00
61014;BME280;46899;47.542;19.082;2023-04-01T04:44:43;99042.47;;;8.09;100.00
61014;BME280;46899;47.542;19.082;2023-04-01T04:47:46;99039.97;;;8.27;100.00
61014;BME280;46899;47.542;19.082;2023-04-01T04:50:49;99045.38;;;8.58;100.00
61014;BME280;46899;47.542;19.082;2023-04-01T04:53:52;99039.59;;;8.70;100.00
61014;BME280;46899;47.542;19.082;2023-04-01T04:56:55;99043.13;;;8.86;100.00
61014;BME280;46899;47.542;19.082;2023-04-01T05:00:00;99041.00;;;8.94;100.00
61014;BME280;46899;47.542;19.082;2023-04-01T05:03:05;99037.81;;;9.06;100.00
61014;BME280;46899;47.542;19.082;2023-04-01T05:06:08;99045.03;;;9.17;100.00
61014;BME280;46899;47.542;19.082;2023-04-01T05:09:11;99037.78;;;9.23;100.00
61014;BME280;46899;47.542;19.082;2023-04-01T05:12:14;99040.50;;;9.37;100.00
61014;BME280;46899;47.542;19.082;2023-04-01T05:15:19;99047.69;;;9.49;100.00
61014;BME280;46899;47.542;19.082;2023-04-01T05:18:22;99050.13;;;9.52;100.00
61014;BME280;46899;47.542;19.082;2023-04-01T05:21:25;99050.94;;;9.70;100.00
61014;BME280;46899;47.542;19.082;2023-04-01T05:24:27;99043.41;;;9.81;100.00
61014;BME280;46899;47.542;19.082;2023-04-01T05:27:30;99047.56;;;10.01;100.00
61014;BME280;46899;47.542;19.082;2023-04-01T05:30:34;99041.81;;;10.11;100.00
61014;BME280;46899;47.542;19.082;2023-04-01T05:33:37;99054.25;;;10.22;100.00
61014;BME280;46899;47.542;19.082;2023-04-01T05:36:40;99060.69;;;10.30;100.00
61014;BME280;46899;47.542;19.082;2023-04-01T05:39:44;99046.19;;;10.42;99.25
61014;BME280;46899;47.542;19.082;2023-04-01T05:42:47;99055.75;;;10.57;98.14
61014;BME280;46899;47.542;19.082;2023-04-01T05:45:49;99055.53;;;10.76;95.49
61014;BME280;46899;47.542;19.082;2023-04-01T05:48:54;99053.56;;;11.68;89.30
61014;BME280;46899;47.542;19.082;2023-04-01T05:51:57;99063.84;;;12.94;81.25
61014;BME280;46899;47.542;19.082;2023-04-01T05:55:00;99069.25;;;13.69;76.81
61014;BME280;46899;47.542;19.082;2023-04-01T05:58:02;99068.47;;;13.30;76.76
61014;BME280;46899;47.542;19.082;2023-04-01T06:01:06;99059.62;;;12.79;78.76
61014;BME280;46899;47.542;19.082;2023-04-01T06:04:16;99058.81;;;12.37;81.86
61014;BME280;46899;47.542;19.082;2023-04-01T06:07:19;99057.94;;;12.51;83.99
61014;BME280;46899;47.542;19.082;2023-04-01T06:10:22;99066.41;;;14.59;70.75
61014;BME280;46899;47.542;19.082;2023-04-01T06:19:59;99065.44;;;16.10;63.48
61014;BME280;46899;47.542;19.082;2023-04-01T06:29:44;99052.97;;;15.46;65.30
61014;BME280;46899;47.542;19.082;2023-04-01T06:42:22;99074.44;;;15.27;65.64
61014;BME280;46899;47.542;19.082;2023-04-01T06:55:48;99075.03;;;14.96;65.32
61014;BME280;46899;47.542;19.082;2023-04-01T06:58:55;99073.63;;;14.79;67.05
61014;BME280;46899;47.542;19.082;2023-04-01T07:05:03;99082.09;;;15.76;64.07
61014;BME280;46899;47.542;19.082;2023-04-01T07:08:08;99079.50;;;16.42;60.66
61014;BME280;46899;47.542;19.082;2023-04-01T07:11:34;99078.31;;;16.58;58.78
61014;BME280;46899;47.542;19.082;2023-04-01T07:14:40;99082.66;;;16.90;57.29
61014;BME280;46899;47.542;19.082;2023-04-01T07:17:44;99080.09;;;17.94;54.35
61014;BME280;46899;47.542;19.082;2023-04-01T07:20:48;99078.13;;;18.47;52.21
61014;BME280;46899;47.542;19.082;2023-04-01T07:23:51;99080.16;;;17.41;54.42
61014;BME280;46899;47.542;19.082;2023-04-01T07:26:56;99079.81;;;17.14;55.53
61014;BME280;46899;47.542;19.082;2023-04-01T07:30:00;99075.09;;;17.91;53.96
61014;BME280;46899;47.542;19.082;2023-04-01T07:33:05;99079.44;;;18.71;50.62
61014;BME280;46899;47.542;19.082;2023-04-01T07:36:18;99075.59;;;19.04;49.16
61014;BME280;46899;47.542;19.082;2023-04-01T07:49:14;99082.91;;;21.83;43.26
61014;BME280;46899;47.542;19.082;2023-04-01T07:52:40;99078.66;;;20.22;45.11
61014;BME280;46899;47.542;19.082;2023-04-01T07:55:54;99082.78;;;18.33;49.51
61014;BME280;46899;47.542;19.082;2023-04-01T07:59:10;99091.97;;;17.15;54.25
61014;BME280;46899;47.542;19.082;2023-04-01T08:18:22;99083.56;;;16.58;58.78
61014;BME280;46899;47.542;19.082;2023-04-01T08:21:35;99087.37;;;16.42;58.69
61014;BME280;46899;47.542;19.082;2023-04-01T08:24:43;99102.78;;;17.12;56.16
61014;BME280;46899;47.542;19.082;2023-04-01T08:27:55;99083.31;;;16.50;60.42
61014;BME280;46899;47.542;19.082;2023-04-01T08:31:11;99088.81;;;16.24;57.61
61014;BME280;46899;47.542;19.082;2023-04-01T08:34:16;99085.09;;;16.49;58.14
61014;BME280;46899;47.542;19.082;2023-04-01T08:37:22;99084.03;;;16.18;59.08
61014;BME280;46899;47.542;19.082;2023-04-01T08:59:43;99088.97;;;14.73;67.50
61014;BME280;46899;47.542;19.082;2023-04-01T09:16:13;99083.72;;;14.73;66.12
61014;BME280;46899;47.542;19.082;2023-04-01T09:28:54;99088.00;;;15.45;62.48
61014;BME280;46899;47.542;19.082;2023-04-01T09:35:24;99077.91;;;16.73;58.09
61014;BME280;46899;47.542;19.082;2023-04-01T09:38:35;99069.13;;;16.19;60.44
61014;BME280;46899;47.542;19.082;2023-04-01T09:48:29;99089.72;;;14.01;69.21
61014;BME280;46899;47.542;19.082;2023-04-01T09:51:48;99091.81;;;13.83;71.68
61014;BME280;46899;47.542;19.082;2023-04-01T09:54:58;99086.37;;;13.48;71.73
61014;BME280;46899;47.542;19.082;2023-04-01T10:13:59;99092.44;;;14.12;70.28
61014;BME280;46899;47.542;19.082;2023-04-01T10:33:44;99097.84;;;13.46;73.96
61014;BME280;46899;47.542;19.082;2023-04-01T10:46:41;99096.50;;;14.16;72.30
61014;BME280;46899;47.542;19.082;2023-04-01T10:56:13;99091.50;;;14.13;71.59
61014;BME280;46899;47.542;19.082;2023-04-01T11:09:14;99087.56;;;15.03;68.25
61014;BME280;46899;47.542;19.082;2023-04-01T11:12:39;99081.59;;;15.25;65.57
61014;BME280;46899;47.542;19.082;2023-04-01T11:16:00;99072.91;;;14.77;66.65
61014;BME280;46899;47.542;19.082;2023-04-01T11:19:10;99068.12;;;14.48;68.22
61014;BME280;46899;47.542;19.082;2023-04-01T11:35:32;99080.50;;;14.33;65.50
61014;BME280;46899;47.542;19.082;2023-04-01T11:48:33;99106.38;;;13.23;72.83
61014;BME280;46899;47.542;19.082;2023-04-01T12:04:29;99094.28;;;13.34;73.64
61014;BME280;46899;47.542;19.082;2023-04-01T12:13:49;99089.28;;;14.68;68.30
61014;BME280;46899;47.542;19.082;2023-04-01T12:27:08;99101.03;;;15.34;60.15
61014;BME280;46899;47.542;19.082;2023-04-01T12:34:12;99095.94;;;15.43;61.27
61014;BME280;46899;47.542;19.082;2023-04-01T12:36:57;99097.19;;;15.27;60.90
61014;BME280;46899;47.542;19.082;2023-04-01T12:46:58;99095.44;;;15.38;60.83
61014;BME280;46899;47.542;19.082;2023-04-01T12:50:16;99093.97;;;15.47;60.73
61014;BME280;46899;47.542;19.082;2023-04-01T12:56:32;99090.00;;;15.87;59.24
61014;BME280;46899;47.542;19.082;2023-04-01T13:03:05;99085.63;;;15.53;59.91
61014;BME280;46899;47.542;19.082;2023-04-01T13:22:03;99074.44;;;15.62;56.99
61014;BME280;46899;47.542;19.082;2023-04-01T13:28:23;99078.31;;;15.80;56.63
61014;BME280;46899;47.542;19.082;2023-04-01T13:34:48;99069.41;;;15.48;56.18
61014;BME280;46899;47.542;19.082;2023-04-01T13:38:08;99077.56;;;15.67;55.81
61014;BME280;46899;47.542;19.082;2023-04-01T14:13:41;99091.19;;;16.16;54.51
61014;BME280;46899;47.542;19.082;2023-04-01T14:16:55;99084.63;;;16.00;56.05
61014;BME280;46899;47.542;19.082;2023-04-01T14:33:21;99091.72;;;15.53;56.40
61014;BME280;46899;47.542;19.082;2023-04-01T14:36:49;99082.09;;;15.30;57.71
61014;BME280;46899;47.542;19.082;2023-04-01T14:49:36;99075.66;;;14.99;57.77
61014;BME280;46899;47.542;19.082;2023-04-01T14:52:40;99076.94;;;14.94;57.66
61014;BME280;46899;47.542;19.082;2023-04-01T14:55:49;99074.34;;;15.05;58.07
61014;BME280;46899;47.542;19.082;2023-04-01T14:58:57;99075.88;;;14.96;58.21
61014;BME280;46899;47.542;19.082;2023-04-01T15:02:14;99068.16;;;14.95;58.94
61014;BME280;46899;47.542;19.082;2023-04-01T15:05:32;99078.63;;;14.95;59.18
61014;BME280;46899;47.542;19.082;2023-04-01T15:08:56;99076.34;;;14.90;58.56
61014;BME280;46899;47.542;19.082;2023-04-01T15:18:33;99077.34;;;14.41;61.58
61014;BME280;46899;47.542;19.082;2023-04-01T15:24:48;99087.22;;;14.61;60.93
61014;BME280;46899;47.542;19.082;2023-04-01T15:40:49;99092.88;;;14.67;58.83
61014;BME280;46899;47.542;19.082;2023-04-01T15:43:54;99094.41;;;14.70;58.68
61014;BME280;46899;47.542;19.082;2023-04-01T15:47:00;99095.72;;;14.64;58.75
61014;BME280;46899;47.542;19.082;2023-04-01T15:56:36;99099.00;;;14.79;56.78
61014;BME280;46899;47.542;19.082;2023-04-01T16:24:54;99116.94;;;14.96;51.29
61014;BME280;46899;47.542;19.082;2023-04-01T16:31:13;99122.69;;;15.01;51.77
61014;BME280;46899;47.542;19.082;2023-04-01T16:34:30;99130.75;;;14.98;52.03
61014;BME280;46899;47.542;19.082;2023-04-01T16:37:43;99131.09;;;14.93;51.99
61014;BME280;46899;47.542;19.082;2023-04-01T16:44:12;99131.69;;;14.73;56.37
61014;BME280;46899;47.542;19.082;2023-04-01T16:47:20;99135.31;;;14.60;57.44
61014;BME280;46899;47.542;19.082;2023-04-01T16:50:28;99136.16;;;14.48;59.38
61014;BME280;46899;47.542;19.082;2023-04-01T16:53:41;99138.47;;;14.27;59.00
61014;BME280;46899;47.542;19.082;2023-04-01T16:56:50;99148.75;;;14.17;60.17
61014;BME280;46899;47.542;19.082;2023-04-01T16:59:58;99139.53;;;14.12;60.58
61014;BME280;46899;47.542;19.082;2023-04-01T17:06:19;99147.16;;;13.77;62.02
61014;BME280;46899;47.542;19.082;2023-04-01T17:09:36;99158.22;;;13.68;62.79
61014;BME280;46899;47.542;19.082;2023-04-01T17:15:57;99155.53;;;13.43;64.03
61014;BME280;46899;47.542;19.082;2023-04-01T17:25:43;99165.91;;;13.18;65.80
61014;BME280;46899;47.542;19.082;2023-04-01T17:28:59;99163.72;;;12.97;66.71
61014;BME280;46899;47.542;19.082;2023-04-01T17:35:12;99169.31;;;12.91;67.55
61014;BME280;46899;47.542;19.082;2023-04-01T17:38:23;99173.38;;;12.69;68.18
61014;BME280;46899;47.542;19.082;2023-04-01T17:51:17;99183.91;;;12.39;71.13
61014;BME280;46899;47.542;19.082;2023-04-01T17:58:00;99192.56;;;12.11;71.72
61014;BME280;46899;47.542;19.082;2023-04-01T18:04:39;99196.91;;;11.83;73.47
61014;BME280;46899;47.542;19.082;2023-04-01T18:11:16;99213.22;;;11.86;74.01
61014;BME280;46899;47.542;19.082;2023-04-01T18:24:11;99220.84;;;11.44;77.83
61014;BME280;46899;47.542;19.082;2023-04-01T18:27:29;99223.13;;;11.34;78.42
61014;BME280;46899;47.542;19.082;2023-04-01T18:30:34;99225.63;;;11.36;79.37
61014;BME280;46899;47.542;19.082;2023-04-01T18:36:53;99230.03;;;11.20;80.62
61014;BME280;46899;47.542;19.082;2023-04-01T18:40:10;99238.34;;;11.11;80.94
61014;BME280;46899;47.542;19.082;2023-04-01T18:43:22;99246.41;;;11.06;80.98
61014;BME280;46899;47.542;19.082;2023-04-01T18:52:43;99250.84;;;10.88;82.52
61014;BME280;46899;47.542;19.082;2023-04-01T18:55:47;99261.00;;;10.77;83.32
61014;BME280;46899;47.542;19.082;2023-04-01T18:58:58;99264.19;;;10.67;84.37
61014;BME280;46899;47.542;19.082;2023-04-01T19:08:31;99260.59;;;10.52;86.89
61014;BME280;46899;47.542;19.082;2023-04-01T19:11:45;99255.94;;;10.42;87.65
61014;BME280;46899;47.542;19.082;2023-04-01T19:18:02;99261.87;;;10.28;87.66
61014;BME280;46899;47.542;19.082;2023-04-01T19:21:10;99255.31;;;10.21;87.64
61014;BME280;46899;47.542;19.082;2023-04-01T19:24:19;99256.63;;;10.12;88.27
61014;BME280;46899;47.542;19.082;2023-04-01T19:27:29;99259.13;;;10.14;88.12
61014;BME280;46899;47.542;19.082;2023-04-01T19:30:48;99264.56;;;10.26;87.43
61014;BME280;46899;47.542;19.082;2023-04-01T19:37:16;99270.37;;;10.14;90.27
61014;BME280;46899;47.542;19.082;2023-04-01T19:40:32;99267.38;;;10.05;89.56
61014;BME280;46899;47.542;19.082;2023-04-01T19:50:31;99286.63;;;10.35;87.66
61014;BME280;46899;47.542;19.082;2023-04-01T19:53:53;99282.88;;;10.41;87.02
61014;BME280;46899;47.542;19.082;2023-04-01T20:19:04;99293.69;;;10.33;88.35
61014;BME280;46899;47.542;19.082;2023-04-01T20:22:19;99290.75;;;10.05;90.08
61014;BME280;46899;47.542;19.082;2023-04-01T20:25:30;99288.97;;;9.88;91.33
61014;BME280;46899;47.542;19.082;2023-04-01T20:41:27;99288.38;;;9.47;95.73
61014;BME280;46899;47.542;19.082;2023-04-01T20:50:54;99297.38;;;9.03;99.59
61014;BME280;46899;47.542;19.082;2023-04-01T20:57:06;99296.28;;;8.90;100.00
61014;BME280;46899;47.542;19.082;2023-04-01T21:00:16;99309.63;;;8.81;100.00
61014;BME280;46899;47.542;19.082;2023-04-01T21:12:52;99323.28;;;8.66;100.00
61014;BME280;46899;47.542;19.082;2023-04-01T21:16:00;99315.00;;;8.58;100.00
61014;BME280;46899;47.542;19.082;2023-04-01T21:22:34;99318.25;;;8.43;100.00
61014;BME280;46899;47.542;19.082;2023-04-01T21:44:40;99336.25;;;8.46;100.00
61014;BME280;46899;47.542;19.082;2023-04-01T21:47:55;99334.97;;;8.36;100.00
61014;BME280;46899;47.542;19.082;2023-04-01T22:10:45;99346.31;;;9.67;93.50
61014;BME280;46899;47.542;19.082;2023-04-01T22:16:58;99356.00;;;9.82;92.58
61014;BME280;46899;47.542;19.082;2023-04-01T22:26:24;99358.22;;;9.71;93.46
61014;BME280;46899;47.542;19.082;2023-04-01T22:29:44;99349.69;;;9.69;93.47
61014;BME280;46899;47.542;19.082;2023-04-01T22:32:52;99356.03;;;9.63;93.44
61014;BME280;46899;47.542;19.082;2023-04-01T22:36:05;99362.63;;;9.51;94.63
61014;BME280;46899;47.542;19.082;2023-04-01T22:51:39;99379.16;;;9.30;96.46
61014;BME280;46899;47.542;19.082;2023-04-01T22:54:48;99388.44;;;9.17;97.66
61014;BME280;46899;47.542;19.082;2023-04-01T22:57:57;99389.28;;;9.18;98.03
61014;BME280;46899;47.542;19.082;2023-04-01T23:01:07;99390.47;;;9.11;98.38
61014;BME280;46899;47.542;19.082;2023-04-01T23:04:15;99393.06;;;9.11;98.11
61014;BME280;46899;47.542;19.082;2023-04-01T23:07:24;99392.22;;;9.10;98.20
61014;BME280;46899;47.542;19.082;2023-04-01T23:10:30;99399.34;;;9.05;99.05
61014;BME280;46899;47.542;19.082;2023-04-01T23:13:43;99408.19;;;9.01;99.15
61014;BME280;46899;47.542;19.082;2023-04-01T23:26:30;99402.19;;;8.80;100.00
61014;BME280;46899;47.542;19.082;2023-04-01T23:29:37;99407.41;;;8.79;100.00
61014;BME280;46899;47.542;19.082;2023-04-01T23:32:42;99405.94;;;8.73;100.00
61014;BME280;46899;47.542;19.082;2023-04-01T23:35:49;99413.31;;;8.82;100.00
61014;BME280;46899;47.542;19.082;2023-04-01T23:38:52;99413.81;;;8.90;100.00
61014;BME280;46899;47.542;19.082;2023-04-01T23:41:58;99414.03;;;8.86;100.00
61014;BME280;46899;47.542;19.082;2023-04-01T23:45:03;99406.63;;;8.77;100.00
61014;BME280;46899;47.542;19.082;2023-04-01T23:48:10;99411.06;;;8.75;100.00
61014;BME280;46899;47.542;19.082;2023-04-01T23:51:18;99414.03;;;8.86;100.00
61014;BME280;46899;47.542;19.082;2023-04-01T23:54:31;99414.31;;;8.80;100.00
61014;BME280;46899;47.542;19.082;2023-04-01T23:57:36;99417.88;;;8.77;100.00
